Baltimore, Maryland
Traffic Map
Current Weather Conditions
Baltimore, Maryland
Overcast Light Rain
Overcast
72°
Feels Like: 72°
Wind Chill: 72° Ceiling: 12000
Heat Index: 72° Visibility: 9mi
Dew Point: 71° Wind: 8mph
Humidity: 97% Direction: 130° (SE)
Pressure: 29.97in Gusts: 0mph
Raw Report DataKBWI 310154Z 13007KT 9SM -RA FEW009 SCT045 BKN120 OVC150 22/22 A2997 RMK AO2 TSE45 SLP147 FRQ LTGICCG DSNT E-SE CB DSNT E-SE MOV NE P0043 T02220217 $
Traffic Incident Summary
Active as of:
Severity:
Category:
InformationThere was an issue retrieving the traffic information for this location. Please try a different location or try again shortly.
Advertisements
Track Severe Weather on mobile